Time;durP1;ratioP1;P1;durP2;ratioP2;P2;SDS_P1;SDS_P2;PMS_P1;PMS_P2;Temp;Humidity;BMP_temperature;BMP_pressure;BME280_temperature;BME280_humidity;BME280_pressure;Samples;Min_cycle;Max_cycle;Signal;HPM_P1;HPM_P2
2020/12/27 00:01:48;;;;;;;;;;;;;;;;;;5065400;28;19925;-69
2020/12/27 00:04:15;;;;;;;;;;;;;;;;;;5065803;28;20340;-67
2020/12/27 00:06:41;;;;;;;;;;;;;;;;;;5062159;28;20007;-66
2020/12/27 00:09:08;;;;;;;;;;;;;;;;;;5070858;28;20382;-67
2020/12/27 00:11:34;;;;;;;;;;;;;;;;;;5070896;28;20309;-66
2020/12/27 00:14:01;;;;;;;;;;;;;;;;;;5065312;28;19924;-67
2020/12/27 00:16:27;;;;;;;;;;;;;;;;;;5066025;28;19929;-65
2020/12/27 00:18:54;;;;;;;;;;;;;;;;;;5063570;28;19924;-66
2020/12/27 00:21:21;;;;;;;;;;;;;;;;;;5070289;28;20014;-67
2020/12/27 00:23:47;;;;;;;;;;;;;;;;;;5062595;28;19968;-66
2020/12/27 00:26:14;;;;;;;;;;;;;;;;;;5058508;28;19924;-67
2020/12/27 00:28:40;;;;;;;;;;;;;;;;;;5070630;28;19931;-66
2020/12/27 00:31:07;;;;;;;;;;;;;;;;;;5071103;28;19976;-67
2020/12/27 00:33:34;;;;;;;;;;;;;;;;;;5061684;28;19970;-67
2020/12/27 00:36:00;;;;;;;;;;;;;;;;;;5069401;28;20015;-67
2020/12/27 00:38:27;;;;;;;;;;;;;;;;;;5067269;28;19936;-68
2020/12/27 00:40:53;;;;;;;;;;;;;;;;;;5070441;28;19925;-65
2020/12/27 00:43:20;;;;;;;;;;;;;;;;;;5055032;28;20514;-66
2020/12/27 00:45:46;;;;;;;;;;;;;;;;;;5065605;28;19994;-71
2020/12/27 00:48:13;;;;;;;;;;;;;;;;;;5067524;28;19936;-68
2020/12/27 00:50:41;;;;;;;;;;;;;;;;;;5068279;28;19975;-65
2020/12/27 00:53:07;;;;;;;;;;;;;;;;;;5065655;28;19928;-66
2020/12/27 00:55:34;;;;;;;;;;;;;;;;;;5064318;28;19931;-66
2020/12/27 00:58:00;;;;;;;;;;;;;;;;;;5060150;28;19976;-65
2020/12/27 01:00:27;;;;;;;;;;;;;;;;;;5067546;28;19971;-66
2020/12/27 01:02:53;;;;;;;;;;;;;;;;;;5063554;28;19967;-66
2020/12/27 01:05:20;;;;;;;;;;;;;;;;;;5071916;28;19964;-67
2020/12/27 01:07:47;;;;;;;;;;;;;;;;;;5054976;28;20005;-65
2020/12/27 01:10:13;;;;;;;;;;;;;;;;;;5069643;28;19925;-68
2020/12/27 01:12:40;;;;;;;;;;;;;;;;;;5066387;28;19991;-67
2020/12/27 01:15:07;;;;;;;;;;;;;;;;;;5066434;28;20011;-69
2020/12/27 01:17:34;;;;;;;;;;;;;;;;;;5068829;28;19924;-65
2020/12/27 01:20:00;;;;;;;;;;;;;;;;;;5072145;28;19924;-66
2020/12/27 01:22:27;;;;;;;;;;;;;;;;;;5070577;28;19981;-66
2020/12/27 01:24:53;;;;;;;;;;;;;;;;;;5072844;28;19925;-67
2020/12/27 01:27:20;;;;;;;;;;;;;;;;;;5072080;28;19925;-67
2020/12/27 01:29:46;;;;;;;;;;;;;;;;;;5067611;28;20011;-66
2020/12/27 01:32:13;;;;;;;;;;;;;;;;;;5068640;28;20023;-66
2020/12/27 01:34:39;;;;;;;;;;;;;;;;;;5071959;28;20039;-66
2020/12/27 01:37:06;;;;;;;;;;;;;;;;;;5073547;28;19925;-68
2020/12/27 01:39:32;;;;;;;;;;;;;;;;;;5073478;28;19924;-65
2020/12/27 01:41:59;;;;;;;;;;;;;;;;;;5070443;28;19925;-66
2020/12/27 01:44:25;;;;;;;;;;;;;;;;;;5073928;28;19935;-64
2020/12/27 01:46:52;;;;;;;;;;;;;;;;;;5068685;28;19924;-67
2020/12/27 01:49:18;;;;;;;;;;;;;;;;;;5066992;28;19925;-66
2020/12/27 01:51:45;;;;;;;;;;;;;;;;;;5071614;28;20003;-67
2020/12/27 01:54:11;;;;;;;;;;;;;;;;;;5072462;28;19925;-65
2020/12/27 01:56:38;;;;;;;;;;;;;;;;;;5070942;28;20011;-66
2020/12/27 01:59:04;;;;;;;;;;;;;;;;;;5063086;28;20280;-66
2020/12/27 02:01:31;;;;;;;;;;;;;;;;;;5056985;28;19925;-67
2020/12/27 02:03:57;;;;;;;;;;;;;;;;;;5065937;28;19924;-67
2020/12/27 02:06:24;;;;;;;;;;;;;;;;;;5064721;28;19928;-65
2020/12/27 02:08:50;;;;;;;;;;;;;;;;;;5063703;28;19924;-67
2020/12/27 02:11:17;;;;;;;;;;;;;;;;;;5068910;28;19932;-67
2020/12/27 02:13:43;;;;;;;;;;;;;;;;;;5060815;28;19935;-66
2020/12/27 02:16:10;;;;;;;;;;;;;;;;;;5063205;28;19970;-67
2020/12/27 02:18:36;;;;;;;;;;;;;;;;;;5061806;28;19928;-65
2020/12/27 02:21:03;;;;;;;;;;;;;;;;;;5056717;28;19924;-66
2020/12/27 02:23:29;;;;;;;;;;;;;;;;;;5054770;28;19931;-66
2020/12/27 02:25:56;;;;;;;;;;;;;;;;;;5069780;28;20308;-66
2020/12/27 02:28:22;;;;;;;;;;;;;;;;;;5068086;28;19932;-65
2020/12/27 02:30:48;;;;;;;;;;;;;;;;;;5063769;28;19925;-62
2020/12/27 02:33:15;;;;;;;;;;;;;;;;;;5065157;28;19928;-65
2020/12/27 02:35:41;;;;;;;;;;;;;;;;;;5067576;28;20332;-65
2020/12/27 02:38:08;;;;;;;;;;;;;;;;;;5072323;28;19928;-65
2020/12/27 02:40:34;;;;;;;;;;;;;;;;;;5061051;28;20011;-65
2020/12/27 02:43:01;;;;;;;;;;;;;;;;;;5072299;28;20378;-66
2020/12/27 02:45:27;;;;;;;;;;;;;;;;;;5071966;28;19933;-64
2020/12/27 02:47:54;;;;;;;;;;;;;;;;;;5071274;28;20375;-64
2020/12/27 02:50:20;;;;;;;;;;;;;;;;;;5064426;28;19939;-66
2020/12/27 02:52:47;;;;;;;;;;;;;;;;;;5072259;28;19928;-66
2020/12/27 02:55:13;;;;;;;;;;;;;;;;;;5060443;28;19931;-65
2020/12/27 02:57:40;;;;;;;;;;;;;;;;;;5065275;28;19931;-66
2020/12/27 03:00:06;;;;;;;;;;;;;;;;;;5068971;28;20318;-65
2020/12/27 03:02:33;;;;;;;;;;;;;;;;;;5056945;28;19925;-66
2020/12/27 03:04:59;;;;;;;;;;;;;;;;;;5064708;28;20452;-65
2020/12/27 03:07:26;;;;;;;;;;;;;;;;;;5063258;28;19924;-66
2020/12/27 03:09:52;;;;;;;;;;;;;;;;;;5067414;28;19932;-65
2020/12/27 03:12:19;;;;;;;;;;;;;;;;;;5071576;28;20304;-63
2020/12/27 03:14:45;;;;;;;;;;;;;;;;;;5061650;28;19925;-65
2020/12/27 03:17:12;;;;;;;;;;;;;;;;;;5061467;28;20011;-67
2020/12/27 03:19:38;;;;;;;;;;;;;;;;;;5068710;28;19942;-65
2020/12/27 03:22:05;;;;;;;;;;;;;;;;;;5059872;28;20363;-65
2020/12/27 03:24:31;;;;;;;;;;;;;;;;;;5061451;28;20005;-66
2020/12/27 03:26:58;;;;;;;;;;;;;;;;;;5065497;28;19929;-67
2020/12/27 03:29:24;;;;;;;;;;;;;;;;;;5071616;28;20043;-64
2020/12/27 03:31:51;;;;;;;;;;;;;;;;;;5060244;28;19994;-65
2020/12/27 03:34:17;;;;;;;;;;;;;;;;;;5069949;28;19929;-64
2020/12/27 03:36:44;;;;;;;;;;;;;;;;;;5070907;28;19932;-66
2020/12/27 03:39:10;;;;;;;;;;;;;;;;;;5065906;28;19924;-66
2020/12/27 03:41:37;;;;;;;;;;;;;;;;;;5063240;28;19929;-66
2020/12/27 03:44:03;;;;;;;;;;;;;;;;;;5063960;28;19932;-66
2020/12/27 03:46:30;;;;;;;;;;;;;;;;;;5070787;28;20273;-66
2020/12/27 03:48:56;;;;;;;;;;;;;;;;;;5063890;28;20060;-67
2020/12/27 03:51:23;;;;;;;;;;;;;;;;;;5070991;28;19984;-67
2020/12/27 03:53:49;;;;;;;;;;;;;;;;;;5071258;28;20047;-66
2020/12/27 03:56:15;;;;;;;;;;;;;;;;;;5063966;28;20264;-65
2020/12/27 03:58:42;;;;;;;;;;;;;;;;;;5071082;28;19924;-65
2020/12/27 04:01:08;;;;;;;;;;;;;;;;;;5066912;28;19925;-65
2020/12/27 04:03:35;;;;;;;;;;;;;;;;;;5068013;28;19924;-65
2020/12/27 04:06:02;;;;;;;;;;;;;;;;;;5063711;28;19931;-65
2020/12/27 04:08:28;;;;;;;;;;;;;;;;;;5071098;28;19995;-63
2020/12/27 04:10:55;;;;;;;;;;;;;;;;;;5063830;28;19925;-65
2020/12/27 04:13:21;;;;;;;;;;;;;;;;;;5054055;28;19924;-65
2020/12/27 04:15:48;;;;;;;;;;;;;;;;;;5065412;28;20294;-65
2020/12/27 04:18:15;;;;;;;;;;;;;;;;;;5069507;28;20279;-63
2020/12/27 04:20:42;;;;;;;;;;;;;;;;;;5063541;28;19931;-63
2020/12/27 04:23:08;;;;;;;;;;;;;;;;;;5067286;28;20420;-65
2020/12/27 04:25:35;;;;;;;;;;;;;;;;;;5070620;28;20155;-64
2020/12/27 04:28:01;;;;;;;;;;;;;;;;;;5071165;28;19930;-65
2020/12/27 04:30:28;;;;;;;;;;;;;;;;;;5064989;28;19931;-65
2020/12/27 04:32:54;;;;;;;;;;;;;;;;;;5067906;28;19924;-66
2020/12/27 04:35:21;;;;;;;;;;;;;;;;;;5071666;28;19969;-64
2020/12/27 04:37:47;;;;;;;;;;;;;;;;;;5064055;28;19929;-64
2020/12/27 04:40:14;;;;;;;;;;;;;;;;;;5063633;28;20310;-66
2020/12/27 04:42:42;;;;;;;;;;;;;;;;;;5067481;28;19931;-65
2020/12/27 04:45:08;;;;;;;;;;;;;;;;;;5066585;28;19932;-65
2020/12/27 04:47:35;;;;;;;;;;;;;;;;;;5066252;28;19935;-65
2020/12/27 04:50:01;;;;;;;;;;;;;;;;;;5073751;28;19924;-65
2020/12/27 04:52:28;;;;;;;;;;;;;;;;;;5057526;28;20288;-65
2020/12/27 04:54:54;;;;;;;;;;;;;;;;;;5067450;28;19939;-66
2020/12/27 04:57:21;;;;;;;;;;;;;;;;;;5064557;28;19931;-65
2020/12/27 04:59:47;;;;;;;;;;;;;;;;;;5066423;28;19928;-64
2020/12/27 05:02:13;;;;;;;;;;;;;;;;;;5069114;28;20332;-65
2020/12/27 05:04:41;;;;;;;;;;;;;;;;;;5083378;22;19925;-66
2020/12/27 05:07:08;;;;;;;;;;;;;;;;;;5037358;28;19933;-67
2020/12/27 05:09:34;;;;;;;;;;;;;;;;;;5037198;28;19929;-68
2020/12/27 05:12:01;;;;;;;;;;;;;;;;;;5033831;28;19980;-66
2020/12/27 05:14:27;;;;;;;;;;;;;;;;;;5031671;28;20044;-66
2020/12/27 05:16:54;;;;;;;;;;;;;;;;;;5032693;28;19929;-66
2020/12/27 05:19:20;;;;;;;;;;;;;;;;;;5026590;28;19925;-66
2020/12/27 05:21:47;;;;;;;;;;;;;;;;;;5033437;28;20000;-67
2020/12/27 05:24:13;;;;;;;;;;;;;;;;;;5035220;28;19983;-65
2020/12/27 05:26:40;;;;;;;;;;;;;;;;;;5028386;28;20387;-68
2020/12/27 05:29:06;;;;;;;;;;;;;;;;;;5034997;28;19975;-67
2020/12/27 05:31:33;;;;;;;;;;;;;;;;;;5032713;28;19929;-67
2020/12/27 05:33:59;;;;;;;;;;;;;;;;;;5028107;28;19980;-65
2020/12/27 05:36:26;;;;;;;;;;;;;;;;;;5033735;28;19929;-65
2020/12/27 05:38:52;;;;;;;;;;;;;;;;;;5038746;28;20302;-66
2020/12/27 05:41:19;;;;;;;;;;;;;;;;;;5036500;28;19925;-66
2020/12/27 05:43:45;;;;;;;;;;;;;;;;;;5025534;28;20344;-66
2020/12/27 05:46:12;;;;;;;;;;;;;;;;;;5035564;28;19925;-66
2020/12/27 05:48:39;;;;;;;;;;;;;;;;;;5026248;28;19926;-66
2020/12/27 05:51:05;;;;;;;;;;;;;;;;;;5030898;28;20020;-66
2020/12/27 05:53:32;;;;;;;;;;;;;;;;;;5030095;28;20012;-65
2020/12/27 05:55:58;;;;;;;;;;;;;;;;;;5027892;28;19925;-65
2020/12/27 05:58:25;;;;;;;;;;;;;;;;;;5031804;28;20013;-67
2020/12/27 06:00:51;;;;;;;;;;;;;;;;;;5034131;28;19931;-66
2020/12/27 06:03:18;;;;;;;;;;;;;;;;;;5026260;28;19929;-66
2020/12/27 06:05:45;;;;;;;;;;;;;;;;;;5032335;28;20008;-65
2020/12/27 06:08:11;;;;;;;;;;;;;;;;;;5028136;28;19940;-66
2020/12/27 06:10:38;;;;;;;;;;;;;;;;;;5033378;28;19925;-66
2020/12/27 06:13:04;;;;;;;;;;;;;;;;;;5032654;28;19936;-65
2020/12/27 06:15:30;;;;;;;;;;;;;;;;;;5028971;28;19931;-65
2020/12/27 06:17:57;;;;;;;;;;;;;;;;;;5033319;28;19979;-66
2020/12/27 06:20:23;;;;;;;;;;;;;;;;;;5037164;28;19929;-66
2020/12/27 06:22:50;;;;;;;;;;;;;;;;;;5032082;28;19925;-66
2020/12/27 06:25:16;;;;;;;;;;;;;;;;;;5027410;28;19925;-66
2020/12/27 06:27:43;;;;;;;;;;;;;;;;;;5025996;28;19932;-66
2020/12/27 06:30:09;;;;;;;;;;;;;;;;;;5029377;28;19925;-66
2020/12/27 06:32:36;;;;;;;;;;;;;;;;;;5031996;28;20314;-68
2020/12/27 06:35:02;;;;;;;;;;;;;;;;;;5030049;28;19932;-66
2020/12/27 06:37:28;;;;;;;;;;;;;;;;;;5028427;28;20024;-66
2020/12/27 06:39:55;;;;;;;;;;;;;;;;;;5038215;28;19940;-65
2020/12/27 06:42:21;;;;;;;;;;;;;;;;;;5033395;28;19931;-66
2020/12/27 06:44:48;;;;;;;;;;;;;;;;;;5030443;28;20303;-66
2020/12/27 06:47:14;;;;;;;;;;;;;;;;;;5029933;28;19979;-67
2020/12/27 06:49:41;;;;;;;;;;;;;;;;;;5030361;28;20066;-67
2020/12/27 06:52:07;;;;;;;;;;;;;;;;;;5033376;28;19960;-66
2020/12/27 06:54:34;;;;;;;;;;;;;;;;;;5034318;28;19936;-66
2020/12/27 06:57:00;;;;;;;;;;;;;;;;;;5033323;28;19968;-67
2020/12/27 06:59:27;;;;;;;;;;;;;;;;;;5020574;28;19926;-67
2020/12/27 07:01:53;;;;;;;;;;;;;;;;;;5034502;28;19929;-66
2020/12/27 07:04:19;;;;;;;;;;;;;;;;;;5030869;28;19925;-66
2020/12/27 07:06:46;;;;;;;;;;;;;;;;;;5018621;28;19925;-67
2020/12/27 07:09:12;;;;;;;;;;;;;;;;;;5019409;28;19926;-67
2020/12/27 07:11:39;;;;;;;;;;;;;;;;;;5028611;28;19925;-66
2020/12/27 07:14:05;;;;;;;;;;;;;;;;;;5032680;28;19931;-68
2020/12/27 07:16:32;;;;;;;;;;;;;;;;;;5037068;28;20510;-67
2020/12/27 07:18:58;;;;;;;;;;;;;;;;;;5025626;28;20306;-66
2020/12/27 07:21:27;;;;;;;;;;;;;;;;;;5029782;28;19925;-67
2020/12/27 07:23:53;;;;;;;;;;;;;;;;;;5035520;28;20284;-67
2020/12/27 07:26:20;;;;;;;;;;;;;;;;;;5033115;28;19925;-67
2020/12/27 07:28:46;;;;;;;;;;;;;;;;;;5028522;28;20023;-66
2020/12/27 07:31:13;;;;;;;;;;;;;;;;;;5035700;28;20359;-66
2020/12/27 07:33:39;;;;;;;;;;;;;;;;;;5031635;28;19926;-67
2020/12/27 07:36:05;;;;;;;;;;;;;;;;;;5046138;28;20016;-67
2020/12/27 07:38:32;;;;;;;;;;;;;;;;;;5038431;28;19925;-66
2020/12/27 07:40:58;;;;;;;;;;;;;;;;;;5044987;28;19925;-66
2020/12/27 07:43:25;;;;;;;;;;;;;;;;;;5042594;28;19992;-66
2020/12/27 07:45:52;;;;;;;;;;;;;;;;;;5028378;28;19925;-67
2020/12/27 07:48:19;;;;;;;;;;;;;;;;;;5020634;28;20019;-67
2020/12/27 07:50:45;;;;;;;;;;;;;;;;;;5026294;28;19925;-67
2020/12/27 07:53:16;;;;;;;;;;;;;;;;;;5017354;28;19925;-66
2020/12/27 07:55:42;;;;;;;;;;;;;;;;;;5034323;28;19925;-66
2020/12/27 07:58:08;;;;;;;;;;;;;;;;;;5026146;28;20452;-68
2020/12/27 08:00:35;;;;;;;;;;;;;;;;;;5027607;28;19925;-68
2020/12/27 08:03:01;;;;;;;;;;;;;;;;;;5036791;28;20283;-66
2020/12/27 08:05:28;;;;;;;;;;;;;;;;;;5033675;28;20379;-68
2020/12/27 08:07:54;;;;;;;;;;;;;;;;;;5032439;28;20063;-68
2020/12/27 08:10:21;;;;;;;;;;;;;;;;;;5039883;28;19925;-68
2020/12/27 08:12:47;;;;;;;;;;;;;;;;;;5034211;28;19925;-69
2020/12/27 08:15:14;;;;;;;;;;;;;;;;;;5027765;28;20019;-67
2020/12/27 08:17:40;;;;;;;;;;;;;;;;;;5029493;28;19925;-67
2020/12/27 08:20:06;;;;;;;;;;;;;;;;;;5027384;28;19925;-67
2020/12/27 08:22:33;;;;;;;;;;;;;;;;;;5027861;28;19929;-68
2020/12/27 08:24:59;;;;;;;;;;;;;;;;;;5037644;28;19965;-66
2020/12/27 08:27:26;;;;;;;;;;;;;;;;;;5042291;28;19935;-68
2020/12/27 08:29:52;;;;;;;;;;;;;;;;;;5038017;28;19929;-67
2020/12/27 08:32:19;;;;;;;;;;;;;;;;;;5030581;28;19932;-67
2020/12/27 08:34:45;;;;;;;;;;;;;;;;;;5027981;28;19979;-67
2020/12/27 08:37:12;;;;;;;;;;;;;;;;;;5033234;28;19932;-68
2020/12/27 08:39:38;;;;;;;;;;;;;;;;;;5047511;28;19925;-68
2020/12/27 08:42:05;;;;;;;;;;;;;;;;;;5049743;28;20051;-67
2020/12/27 08:44:31;;;;;;;;;;;;;;;;;;5044766;28;20310;-67
2020/12/27 08:46:57;;;;;;;;;;;;;;;;;;5031760;28;19925;-68
2020/12/27 08:49:24;;;;;;;;;;;;;;;;;;5027112;28;20016;-67
2020/12/27 08:51:51;;;;;;;;;;;;;;;;;;5035004;28;19971;-67
2020/12/27 08:54:17;;;;;;;;;;;;;;;;;;5030531;28;19925;-67
2020/12/27 08:56:44;;;;;;;;;;;;;;;;;;5033393;28;20003;-68
2020/12/27 08:59:10;;;;;;;;;;;;;;;;;;5030840;28;19929;-67
2020/12/27 09:01:36;;;;;;;;;;;;;;;;;;5031049;28;20024;-70
2020/12/27 09:04:03;;;;;;;;;;;;;;;;;;5031237;28;19959;-68
2020/12/27 09:06:29;;;;;;;;;;;;;;;;;;5030592;28;19932;-68
2020/12/27 09:08:56;;;;;;;;;;;;;;;;;;5031296;28;19933;-67
2020/12/27 09:11:22;;;;;;;;;;;;;;;;;;5027278;28;19959;-68
2020/12/27 09:13:49;;;;;;;;;;;;;;;;;;5026816;28;20028;-67
2020/12/27 09:16:15;;;;;;;;;;;;;;;;;;5025852;28;19925;-68
2020/12/27 09:18:42;;;;;;;;;;;;;;;;;;5031113;28;19940;-67
2020/12/27 09:21:08;;;;;;;;;;;;;;;;;;5029299;28;19971;-68
2020/12/27 09:23:35;;;;;;;;;;;;;;;;;;5023982;28;19933;-67
2020/12/27 09:26:01;;;;;;;;;;;;;;;;;;5024678;28;20379;-67
2020/12/27 09:28:27;;;;;;;;;;;;;;;;;;5029557;28;19924;-68
2020/12/27 09:30:54;;;;;;;;;;;;;;;;;;5024980;28;19926;-67
2020/12/27 09:33:20;;;;;;;;;;;;;;;;;;5023843;28;20379;-67
2020/12/27 09:35:47;;;;;;;;;;;;;;;;;;5032181;28;20504;-68
2020/12/27 09:38:13;;;;;;;;;;;;;;;;;;5028200;28;19935;-68
2020/12/27 09:40:40;;;;;;;;;;;;;;;;;;5029477;28;19944;-67
2020/12/27 09:43:06;;;;;;;;;;;;;;;;;;5025892;28;19925;-69
2020/12/27 09:45:32;;;;;;;;;;;;;;;;;;5030653;28;19932;-67
2020/12/27 09:47:59;;;;;;;;;;;;;;;;;;5027000;28;20460;-67
2020/12/27 09:50:25;;;;;;;;;;;;;;;;;;5032881;28;19929;-67
2020/12/27 09:52:52;;;;;;;;;;;;;;;;;;5027156;28;19925;-67
2020/12/27 09:55:18;;;;;;;;;;;;;;;;;;5030201;28;20322;-67
2020/12/27 09:57:45;;;;;;;;;;;;;;;;;;5025173;28;20405;-66
2020/12/27 10:00:11;;;;;;;;;;;;;;;;;;5031667;28;19929;-67
2020/12/27 10:02:38;;;;;;;;;;;;;;;;;;5030906;28;19925;-66
2020/12/27 10:05:04;;;;;;;;;;;;;;;;;;5028736;28;19925;-67
2020/12/27 10:07:30;;;;;;;;;;;;;;;;;;5026913;28;19933;-69
2020/12/27 10:09:57;;;;;;;;;;;;;;;;;;5031730;28;19933;-69
2020/12/27 10:12:23;;;;;;;;;;;;;;;;;;5030848;28;19929;-66
2020/12/27 10:14:50;;;;;;;;;;;;;;;;;;5032892;28;20070;-66
2020/12/27 10:17:16;;;;;;;;;;;;;;;;;;5028013;28;19925;-67
2020/12/27 10:19:43;;;;;;;;;;;;;;;;;;5027394;28;20357;-67
2020/12/27 10:22:10;;;;;;;;;;;;;;;;;;5024935;28;19925;-68
2020/12/27 10:24:36;;;;;;;;;;;;;;;;;;5026103;28;20016;-67
2020/12/27 10:27:03;;;;;;;;;;;;;;;;;;5026957;28;19943;-70
2020/12/27 10:29:29;;;;;;;;;;;;;;;;;;5027913;28;19970;-67
2020/12/27 10:31:56;;;;;;;;;;;;;;;;;;5022755;28;19933;-67
2020/12/27 10:34:22;;;;;;;;;;;;;;;;;;5024449;28;19925;-68
2020/12/27 10:36:49;;;;;;;;;;;;;;;;;;5030941;28;19935;-66
2020/12/27 10:39:15;;;;;;;;;;;;;;;;;;5030244;28;19929;-66
2020/12/27 10:41:42;;;;;;;;;;;;;;;;;;5024390;28;19925;-67
2020/12/27 10:44:08;;;;;;;;;;;;;;;;;;5027062;28;19925;-67
2020/12/27 10:46:34;;;;;;;;;;;;;;;;;;5027913;28;19933;-67
2020/12/27 10:49:01;;;;;;;;;;;;;;;;;;5024012;28;20075;-67
2020/12/27 10:51:27;;;;;;;;;;;;;;;;;;5025565;28;20348;-69
2020/12/27 10:53:54;;;;;;;;;;;;;;;;;;5030506;28;19925;-67
2020/12/27 10:56:20;;;;;;;;;;;;;;;;;;5027097;28;20394;-67
2020/12/27 10:58:48;;;;;;;;;;;;;;;;;;5024750;28;20476;-67
2020/12/27 11:01:14;;;;;;;;;;;;;;;;;;5029239;28;20044;-66
2020/12/27 11:03:41;;;;;;;;;;;;;;;;;;5024316;28;20325;-67
2020/12/27 11:06:07;;;;;;;;;;;;;;;;;;5055968;23;19928;-66
2020/12/27 11:08:34;;;;;;;;;;;;;;;;;;5052978;28;20428;-67
2020/12/27 11:11:00;;;;;;;;;;;;;;;;;;5048783;28;20099;-67
2020/12/27 11:13:27;;;;;;;;;;;;;;;;;;5052009;28;20015;-64
2020/12/27 11:15:53;;;;;;;;;;;;;;;;;;5047313;28;19933;-65
2020/12/27 11:18:20;;;;;;;;;;;;;;;;;;5013613;28;20052;-64
2020/12/27 11:20:46;;;;;;;;;;;;;;;;;;4985836;28;20407;-66
2020/12/27 11:23:13;;;;;;;;;;;;;;;;;;4988348;28;19926;-67
2020/12/27 11:25:39;;;;;;;;;;;;;;;;;;4990743;28;20025;-65
2020/12/27 11:28:06;;;;;;;;;;;;;;;;;;4988080;28;19926;-65
2020/12/27 11:30:32;;;;;;;;;;;;;;;;;;4980058;28;20005;-68
2020/12/27 11:32:59;;;;;;;;;;;;;;;;;;4990231;28;20426;-67
2020/12/27 11:35:25;;;;;;;;;;;;;;;;;;4982372;28;20041;-64
2020/12/27 11:37:53;;;;;;;;;;;;;;;;;;4988993;28;19929;-73
2020/12/27 11:40:19;;;;;;;;;;;;;;;;;;4985358;28;19948;-66
2020/12/27 11:42:46;;;;;;;;;;;;;;;;;;4985867;28;19933;-67
2020/12/27 11:45:12;;;;;;;;;;;;;;;;;;4983243;28;20351;-66
2020/12/27 11:47:39;;;;;;;;;;;;;;;;;;4989789;28;19932;-65
2020/12/27 11:50:05;;;;;;;;;;;;;;;;;;4983802;28;20303;-65
2020/12/27 11:52:32;;;;;;;;;;;;;;;;;;4983375;28;19933;-66
2020/12/27 11:54:58;;;;;;;;;;;;;;;;;;4984979;28;19926;-66
2020/12/27 11:57:25;;;;;;;;;;;;;;;;;;4976278;28;20001;-65
2020/12/27 11:59:51;;;;;;;;;;;;;;;;;;4981009;28;19932;-69
2020/12/27 12:02:18;;;;;;;;;;;;;;;;;;4975025;28;20303;-66
2020/12/27 12:04:44;;;;;;;;;;;;;;;;;;4989513;28;20087;-68
2020/12/27 12:07:10;;;;;;;;;;;;;;;;;;4986973;28;19940;-65
2020/12/27 12:09:37;;;;;;;;;;;;;;;;;;4990730;28;19929;-66
2020/12/27 12:12:03;;;;;;;;;;;;;;;;;;4992505;28;20391;-66
2020/12/27 12:14:30;;;;;;;;;;;;;;;;;;4993073;28;19972;-65
2020/12/27 12:16:56;;;;;;;;;;;;;;;;;;4988224;28;19932;-67
2020/12/27 12:19:23;;;;;;;;;;;;;;;;;;4994326;28;19926;-68
2020/12/27 12:21:49;;;;;;;;;;;;;;;;;;4987992;28;20426;-64
2020/12/27 12:24:16;;;;;;;;;;;;;;;;;;4984309;28;19938;-67
2020/12/27 12:26:42;;;;;;;;;;;;;;;;;;4985996;28;19926;-67
2020/12/27 12:29:09;;;;;;;;;;;;;;;;;;4987871;28;20372;-66
2020/12/27 12:31:36;;;;;;;;;;;;;;;;;;4981001;28;19984;-64
2020/12/27 12:34:02;;;;;;;;;;;;;;;;;;4983354;28;19926;-67
2020/12/27 12:36:30;;;;;;;;;;;;;;;;;;4980690;28;20492;-70
2020/12/27 12:38:56;;;;;;;;;;;;;;;;;;4987410;28;19933;-65
2020/12/27 12:41:23;;;;;;;;;;;;;;;;;;4987034;28;20025;-66
2020/12/27 12:43:49;;;;;;;;;;;;;;;;;;4980489;28;19997;-61
2020/12/27 12:46:16;;;;;;;;;;;;;;;;;;4991238;28;19926;-64
2020/12/27 12:48:42;;;;;;;;;;;;;;;;;;4983460;28;20380;-64
2020/12/27 12:51:09;;;;;;;;;;;;;;;;;;4976923;28;19926;-66
2020/12/27 12:53:35;;;;;;;;;;;;;;;;;;4976458;28;20299;-64
2020/12/27 12:56:01;;;;;;;;;;;;;;;;;;5000509;28;20105;-63
2020/12/27 12:58:28;;;;;;;;;;;;;;;;;;4993328;28;20402;-67
2020/12/27 13:00:54;;;;;;;;;;;;;;;;;;5006946;28;19931;-63
2020/12/27 13:03:21;;;;;;;;;;;;;;;;;;5003976;28;20453;-65
2020/12/27 13:05:47;;;;;;;;;;;;;;;;;;4989284;28;19953;-64
2020/12/27 13:08:14;;;;;;;;;;;;;;;;;;4994887;28;19925;-64
2020/12/27 13:10:40;;;;;;;;;;;;;;;;;;4995990;28;19926;-64
2020/12/27 13:13:07;;;;;;;;;;;;;;;;;;4995582;28;20017;-63
2020/12/27 13:15:33;;;;;;;;;;;;;;;;;;4991221;28;20208;-62
2020/12/27 13:18:00;;;;;;;;;;;;;;;;;;4995829;28;20019;-64
2020/12/27 13:20:27;;;;;;;;;;;;;;;;;;4993171;28;20199;-64
2020/12/27 13:22:53;;;;;;;;;;;;;;;;;;4989374;28;19926;-65
2020/12/27 13:25:20;;;;;;;;;;;;;;;;;;4985853;28;19932;-64
2020/12/27 13:27:46;;;;;;;;;;;;;;;;;;4988986;28;19933;-64
2020/12/27 13:30:13;;;;;;;;;;;;;;;;;;4995380;28;19965;-66
2020/12/27 13:32:39;;;;;;;;;;;;;;;;;;4986880;28;20016;-62
2020/12/27 13:35:06;;;;;;;;;;;;;;;;;;4989287;28;20004;-65
2020/12/27 13:37:32;;;;;;;;;;;;;;;;;;4992908;28;19980;-64
2020/12/27 13:39:59;;;;;;;;;;;;;;;;;;4985750;28;20037;-66
2020/12/27 13:42:25;;;;;;;;;;;;;;;;;;4995419;28;20344;-64
2020/12/27 13:44:52;;;;;;;;;;;;;;;;;;4986982;28;20008;-66
2020/12/27 13:47:18;;;;;;;;;;;;;;;;;;4990547;28;19957;-64
2020/12/27 13:49:45;;;;;;;;;;;;;;;;;;4996099;28;20315;-64
2020/12/27 13:52:11;;;;;;;;;;;;;;;;;;4986450;28;19932;-66
2020/12/27 13:54:38;;;;;;;;;;;;;;;;;;5001818;28;20013;-66
2020/12/27 13:57:04;;;;;;;;;;;;;;;;;;4992742;28;20307;-65
2020/12/27 13:59:31;;;;;;;;;;;;;;;;;;4980444;28;19932;-63
2020/12/27 14:01:57;;;;;;;;;;;;;;;;;;4990893;28;20339;-62
2020/12/27 14:04:24;;;;;;;;;;;;;;;;;;4998691;28;19932;-63
2020/12/27 14:06:50;;;;;;;;;;;;;;;;;;5004157;28;19925;-61
2020/12/27 14:09:17;;;;;;;;;;;;;;;;;;4997647;28;19930;-63
2020/12/27 14:11:43;;;;;;;;;;;;;;;;;;5001363;28;20021;-63
2020/12/27 14:14:10;;;;;;;;;;;;;;;;;;4995892;28;20014;-64
2020/12/27 14:16:36;;;;;;;;;;;;;;;;;;4997281;28;20008;-65
2020/12/27 14:19:03;;;;;;;;;;;;;;;;;;4983400;28;19925;-63
2020/12/27 14:21:29;;;;;;;;;;;;;;;;;;4987930;28;19933;-64
2020/12/27 14:23:55;;;;;;;;;;;;;;;;;;5005010;28;19926;-62
2020/12/27 14:26:22;;;;;;;;;;;;;;;;;;4988236;28;19936;-63
2020/12/27 14:28:48;;;;;;;;;;;;;;;;;;4982859;28;19932;-67
2020/12/27 14:31:15;;;;;;;;;;;;;;;;;;4988228;28;20300;-64
2020/12/27 14:33:41;;;;;;;;;;;;;;;;;;4980702;28;19930;-63
2020/12/27 14:36:08;;;;;;;;;;;;;;;;;;4986731;28;20005;-61
2020/12/27 14:38:34;;;;;;;;;;;;;;;;;;4994623;28;20092;-64
2020/12/27 14:41:01;;;;;;;;;;;;;;;;;;4985723;28;19977;-64
2020/12/27 14:43:27;;;;;;;;;;;;;;;;;;4983298;28;19929;-64
2020/12/27 14:45:54;;;;;;;;;;;;;;;;;;4993398;28;19926;-65
2020/12/27 14:48:20;;;;;;;;;;;;;;;;;;4981747;28;20178;-65
2020/12/27 14:50:47;;;;;;;;;;;;;;;;;;4978087;28;20411;-66
2020/12/27 14:53:13;;;;;;;;;;;;;;;;;;4987142;28;19926;-65
2020/12/27 14:55:40;;;;;;;;;;;;;;;;;;4982198;28;19933;-65
2020/12/27 14:58:06;;;;;;;;;;;;;;;;;;4992287;28;19992;-66
2020/12/27 15:00:33;;;;;;;;;;;;;;;;;;4988662;28;19964;-68
2020/12/27 15:02:59;;;;;;;;;;;;;;;;;;4982741;28;20372;-65
2020/12/27 15:05:26;;;;;;;;;;;;;;;;;;4978932;28;20034;-65
2020/12/27 15:07:52;;;;;;;;;;;;;;;;;;4995090;28;19956;-66
2020/12/27 15:10:19;;;;;;;;;;;;;;;;;;4989206;28;19938;-65
2020/12/27 15:12:45;;;;;;;;;;;;;;;;;;4985442;28;19934;-65
2020/12/27 15:15:12;;;;;;;;;;;;;;;;;;4988802;28;19925;-63
2020/12/27 15:17:39;;;;;;;;;;;;;;;;;;4991072;28;20403;-64
2020/12/27 15:20:05;;;;;;;;;;;;;;;;;;4994362;28;19926;-67
2020/12/27 15:22:32;;;;;;;;;;;;;;;;;;4981332;28;20033;-68
2020/12/27 15:24:58;;;;;;;;;;;;;;;;;;4986450;28;20388;-63
2020/12/27 15:27:25;;;;;;;;;;;;;;;;;;4977065;28;19988;-67
2020/12/27 15:29:51;;;;;;;;;;;;;;;;;;4989812;28;20299;-65
2020/12/27 15:32:18;;;;;;;;;;;;;;;;;;4990073;28;19925;-67
2020/12/27 15:34:44;;;;;;;;;;;;;;;;;;4992089;28;20299;-66
2020/12/27 15:37:11;;;;;;;;;;;;;;;;;;4991221;28;19932;-64
2020/12/27 15:39:37;;;;;;;;;;;;;;;;;;4991112;28;20319;-67
2020/12/27 15:42:04;;;;;;;;;;;;;;;;;;4987298;28;19929;-64
2020/12/27 15:44:30;;;;;;;;;;;;;;;;;;4988562;28;20021;-63
2020/12/27 15:46:57;;;;;;;;;;;;;;;;;;4988828;28;19936;-64
2020/12/27 15:49:23;;;;;;;;;;;;;;;;;;4981442;28;20021;-62
2020/12/27 15:51:50;;;;;;;;;;;;;;;;;;4987401;28;19937;-64
2020/12/27 15:54:16;;;;;;;;;;;;;;;;;;4989323;28;20020;-63
2020/12/27 15:56:43;;;;;;;;;;;;;;;;;;4990354;28;19982;-65
2020/12/27 15:59:09;;;;;;;;;;;;;;;;;;4994230;28;20031;-60
2020/12/27 16:01:36;;;;;;;;;;;;;;;;;;4991713;28;19926;-61
2020/12/27 16:04:02;;;;;;;;;;;;;;;;;;4984275;28;19980;-62
2020/12/27 16:06:29;;;;;;;;;;;;;;;;;;4995421;28;20004;-59
2020/12/27 16:08:55;;;;;;;;;;;;;;;;;;4985028;28;20427;-62
2020/12/27 16:11:22;;;;;;;;;;;;;;;;;;4995357;28;19934;-59
2020/12/27 16:13:48;;;;;;;;;;;;;;;;;;4991331;28;19934;-60
2020/12/27 16:16:15;;;;;;;;;;;;;;;;;;4995664;28;19926;-64
2020/12/27 16:18:41;;;;;;;;;;;;;;;;;;4996993;28;20012;-64
2020/12/27 16:21:08;;;;;;;;;;;;;;;;;;4997305;28;20308;-65
2020/12/27 16:23:34;;;;;;;;;;;;;;;;;;4988651;28;19932;-65
2020/12/27 16:26:01;;;;;;;;;;;;;;;;;;4993520;28;20290;-66
2020/12/27 16:28:27;;;;;;;;;;;;;;;;;;4990735;28;19930;-64
2020/12/27 16:30:54;;;;;;;;;;;;;;;;;;4999134;28;20403;-66
2020/12/27 16:33:20;;;;;;;;;;;;;;;;;;4993080;28;19937;-66
2020/12/27 16:35:47;;;;;;;;;;;;;;;;;;4990324;28;20042;-65
2020/12/27 16:38:13;;;;;;;;;;;;;;;;;;4991240;28;19931;-66
2020/12/27 16:40:40;;;;;;;;;;;;;;;;;;4987822;28;19941;-65